createdAt,value
2023-06-27T00:00:59.038Z,1011.49
2023-06-27T00:01:59.028Z,1011.49
2023-06-27T00:02:59.010Z,1011.53
2023-06-27T00:03:59.109Z,1011.52
2023-06-27T00:04:58.969Z,1011.55
2023-06-27T00:05:58.984Z,1011.54
2023-06-27T00:06:58.983Z,1011.56
2023-06-27T00:07:58.947Z,1011.58
2023-06-27T00:08:58.929Z,1011.58
2023-06-27T00:09:58.929Z,1011.56
2023-06-27T00:10:58.923Z,1011.54
2023-06-27T00:11:58.886Z,1011.59
2023-06-27T00:12:58.880Z,1011.57
2023-06-27T00:13:58.864Z,1011.56
2023-06-27T00:14:58.879Z,1011.55
2023-06-27T00:15:58.872Z,1011.56
2023-06-27T00:16:58.831Z,1011.60
2023-06-27T00:17:58.840Z,1011.58
2023-06-27T00:18:58.810Z,1011.59
2023-06-27T00:19:58.793Z,1011.53
2023-06-27T00:20:58.813Z,1011.54
2023-06-27T00:21:58.769Z,1011.54
2023-06-27T00:22:58.768Z,1011.55
2023-06-27T00:23:58.756Z,1011.56
2023-06-27T00:24:58.748Z,1011.55
2023-06-27T00:25:58.745Z,1011.59
2023-06-27T00:26:58.723Z,1011.59
2023-06-27T00:27:58.698Z,1011.61
2023-06-27T00:28:58.695Z,1011.62
2023-06-27T00:29:58.677Z,1011.58
2023-06-27T00:30:58.719Z,1011.61
2023-06-27T00:31:58.657Z,1011.63
2023-06-27T00:32:58.685Z,1011.57
2023-06-27T00:33:58.629Z,1011.65
2023-06-27T00:34:58.618Z,1011.61
2023-06-27T00:35:58.626Z,1011.61
2023-06-27T00:36:58.592Z,1011.62
2023-06-27T00:37:58.586Z,1011.59
2023-06-27T00:38:58.569Z,1011.65
2023-06-27T00:39:58.557Z,1011.60
2023-06-27T00:40:58.571Z,1011.64
2023-06-27T00:41:58.535Z,1011.60
2023-06-27T00:42:58.534Z,1011.65
2023-06-27T00:43:58.515Z,1011.66
2023-06-27T00:44:58.523Z,1011.63
2023-06-27T00:45:58.504Z,1011.65
2023-06-27T00:46:58.479Z,1011.68
2023-06-27T00:47:58.464Z,1011.64
2023-06-27T00:48:58.457Z,1011.65
2023-06-27T00:49:58.449Z,1011.59
2023-06-27T00:50:58.464Z,1011.60
2023-06-27T00:51:58.421Z,1011.56
2023-06-27T00:52:58.410Z,1011.60
2023-06-27T00:53:58.410Z,1011.63
2023-06-27T00:54:58.385Z,1011.66
2023-06-27T00:55:58.396Z,1011.63
2023-06-27T00:56:58.370Z,1011.63
2023-06-27T00:57:58.347Z,1011.63
2023-06-27T00:58:58.368Z,1011.64
2023-06-27T00:59:58.329Z,1011.65
2023-06-27T01:00:58.346Z,1011.63
2023-06-27T01:01:58.306Z,1011.65
2023-06-27T01:02:58.395Z,1011.67
2023-06-27T01:03:58.313Z,1011.67
2023-06-27T01:04:58.274Z,1011.62
2023-06-27T01:05:58.277Z,1011.58
2023-06-27T01:06:58.280Z,1011.63
2023-06-27T01:07:58.231Z,1011.63
2023-06-27T01:08:58.240Z,1011.61
2023-06-27T01:09:58.207Z,1011.64
2023-06-27T01:10:58.229Z,1011.62
2023-06-27T01:11:58.285Z,1011.60
2023-06-27T01:12:58.193Z,1011.65
2023-06-27T01:13:58.181Z,1011.59
2023-06-27T01:14:58.157Z,1011.57
2023-06-27T01:15:58.171Z,1011.60
2023-06-27T01:16:58.135Z,1011.54
2023-06-27T01:17:58.141Z,1011.55
2023-06-27T01:18:58.111Z,1011.53
2023-06-27T01:19:58.098Z,1011.51
2023-06-27T01:20:58.114Z,1011.51
2023-06-27T01:21:58.073Z,1011.50
2023-06-27T01:22:58.082Z,1011.56
2023-06-27T01:23:58.054Z,1011.49
2023-06-27T01:24:58.061Z,1011.53
2023-06-27T01:25:58.048Z,1011.46
2023-06-27T01:26:58.032Z,1011.47
2023-06-27T01:27:58.008Z,1011.46
2023-06-27T01:28:58.002Z,1011.46
2023-06-27T01:29:57.988Z,1011.41
2023-06-27T01:30:58.069Z,1011.44
2023-06-27T01:31:58.034Z,1011.42
2023-06-27T01:32:58.016Z,1011.44
2023-06-27T01:33:57.942Z,1011.43
2023-06-27T01:34:57.933Z,1011.43
2023-06-27T01:35:57.943Z,1011.38
2023-06-27T01:36:57.917Z,1011.39
2023-06-27T01:37:57.907Z,1011.40
2023-06-27T01:38:57.896Z,1011.38
2023-06-27T01:39:57.880Z,1011.37
2023-06-27T01:40:57.893Z,1011.37
2023-06-27T01:41:57.871Z,1011.35
2023-06-27T01:42:57.844Z,1011.36
2023-06-27T01:43:57.831Z,1011.32
2023-06-27T01:44:57.844Z,1011.34
2023-06-27T01:45:57.871Z,1011.30
2023-06-27T01:46:57.805Z,1011.31
2023-06-27T01:47:57.821Z,1011.31
2023-06-27T01:48:57.780Z,1011.30
2023-06-27T01:49:57.761Z,1011.32
2023-06-27T01:50:57.792Z,1011.34
2023-06-27T01:51:57.777Z,1011.29
2023-06-27T01:52:57.739Z,1011.30
2023-06-27T01:53:57.725Z,1011.32
2023-06-27T01:54:57.731Z,1011.24
2023-06-27T01:55:57.734Z,1011.28
2023-06-27T01:56:57.693Z,1011.29
2023-06-27T01:57:57.679Z,1011.28
2023-06-27T01:58:57.681Z,1011.29
2023-06-27T01:59:57.654Z,1011.29
2023-06-27T02:00:57.689Z,1011.34
2023-06-27T02:01:57.659Z,1011.32
2023-06-27T02:02:57.664Z,1011.34
2023-06-27T02:03:57.627Z,1011.37
2023-06-27T02:04:57.610Z,1011.35
2023-06-27T02:05:57.612Z,1011.36
2023-06-27T02:06:57.648Z,1011.34
2023-06-27T02:07:57.568Z,1011.37
2023-06-27T02:08:57.560Z,1011.38
2023-06-27T02:09:57.550Z,1011.39
2023-06-27T02:10:57.562Z,1011.39
2023-06-27T02:11:57.519Z,1011.36
2023-06-27T02:12:57.523Z,1011.39
2023-06-27T02:13:57.500Z,1011.41
2023-06-27T02:14:57.509Z,1011.37
2023-06-27T02:15:57.507Z,1011.35
2023-06-27T02:16:57.490Z,1011.35
2023-06-27T02:17:57.476Z,1011.34
2023-06-27T02:18:57.460Z,1011.37
2023-06-27T02:19:57.438Z,1011.34
2023-06-27T02:20:57.463Z,1011.32
2023-06-27T02:21:57.419Z,1011.36
2023-06-27T02:22:57.408Z,1011.36
2023-06-27T02:23:57.396Z,1011.33
2023-06-27T02:24:57.405Z,1011.38
2023-06-27T02:25:57.401Z,1011.37
2023-06-27T02:26:57.360Z,1011.36
2023-06-27T02:27:57.341Z,1011.36
2023-06-27T02:28:57.342Z,1011.34
2023-06-27T02:29:57.326Z,1011.32
2023-06-27T02:30:57.388Z,1011.29
2023-06-27T02:31:57.303Z,1011.33
2023-06-27T02:32:57.345Z,1011.30
2023-06-27T02:33:57.276Z,1011.32
2023-06-27T02:34:57.265Z,1011.28
2023-06-27T02:35:57.280Z,1011.33
2023-06-27T02:36:57.246Z,1011.30
2023-06-27T02:37:57.230Z,1011.28
2023-06-27T02:38:57.224Z,1011.28
2023-06-27T02:39:57.214Z,1011.27
2023-06-27T02:40:57.226Z,1011.28
2023-06-27T02:41:57.198Z,1011.21
2023-06-27T02:42:57.193Z,1011.25
2023-06-27T02:43:57.171Z,1011.23
2023-06-27T02:44:57.162Z,1011.24
2023-06-27T02:45:57.217Z,1011.22
2023-06-27T02:46:57.137Z,1011.19
2023-06-27T02:47:57.139Z,1011.20
2023-06-27T02:48:57.112Z,1011.17
2023-06-27T02:49:57.100Z,1011.21
2023-06-27T02:50:57.112Z,1011.20
2023-06-27T02:51:57.075Z,1011.21
2023-06-27T02:52:57.065Z,1011.24
2023-06-27T02:53:57.049Z,1011.23
2023-06-27T02:54:57.040Z,1011.23
2023-06-27T02:55:57.054Z,1011.24
2023-06-27T02:56:57.019Z,1011.23
2023-06-27T02:57:57.014Z,1011.26
2023-06-27T02:58:57.005Z,1011.24
2023-06-27T02:59:56.980Z,1011.24
2023-06-27T03:00:57.008Z,1011.26
2023-06-27T03:01:56.999Z,1011.27
2023-06-27T03:02:57.039Z,1011.26
2023-06-27T03:04:09.221Z,1011.25
2023-06-27T03:04:56.951Z,1011.21
2023-06-27T03:05:56.934Z,1011.26
2023-06-27T03:06:56.914Z,1011.26
2023-06-27T03:07:56.892Z,1011.28
2023-06-27T03:08:56.888Z,1011.30
2023-06-27T03:09:56.877Z,1011.30
2023-06-27T03:10:56.889Z,1011.32
2023-06-27T03:11:56.859Z,1011.31
2023-06-27T03:12:56.840Z,1011.27
2023-06-27T03:13:56.829Z,1011.32
2023-06-27T03:14:56.826Z,1011.30
2023-06-27T03:15:56.827Z,1011.31
2023-06-27T03:16:56.828Z,1011.28
2023-06-27T03:17:56.810Z,1011.29
2023-06-27T03:18:56.774Z,1011.31
2023-06-27T03:19:56.761Z,1011.34
2023-06-27T03:20:56.771Z,1011.32
2023-06-27T03:21:56.736Z,1011.36
2023-06-27T03:22:56.734Z,1011.35
2023-06-27T03:23:56.715Z,1011.39
2023-06-27T03:24:56.711Z,1011.34
2023-06-27T03:25:56.709Z,1011.35
2023-06-27T03:26:56.694Z,1011.31
2023-06-27T03:27:56.667Z,1011.31
2023-06-27T03:28:56.659Z,1011.33
2023-06-27T03:29:56.676Z,1011.35
2023-06-27T03:30:56.665Z,1011.34
2023-06-27T03:31:56.685Z,1011.35
2023-06-27T03:32:56.704Z,1011.34
2023-06-27T03:33:56.600Z,1011.34
2023-06-27T03:34:56.592Z,1011.33
2023-06-27T03:35:56.598Z,1011.37
2023-06-27T03:36:56.576Z,1011.35
2023-06-27T03:37:56.558Z,1011.36
2023-06-27T03:38:56.553Z,1011.34
2023-06-27T03:39:56.529Z,1011.36
2023-06-27T03:40:56.552Z,1011.36
2023-06-27T03:41:56.509Z,1011.37
2023-06-27T03:42:56.505Z,1011.31
2023-06-27T03:43:56.512Z,1011.35
2023-06-27T03:44:56.488Z,1011.35
2023-06-27T03:45:56.492Z,1011.34
2023-06-27T03:46:56.455Z,1011.35
2023-06-27T03:47:56.472Z,1011.39
2023-06-27T03:48:56.437Z,1011.36
2023-06-27T03:49:56.454Z,1011.33
2023-06-27T03:50:56.436Z,1011.35
2023-06-27T03:51:56.401Z,1011.32
2023-06-27T03:52:56.387Z,1011.33
2023-06-27T03:53:56.391Z,1011.30
2023-06-27T03:54:56.367Z,1011.33
2023-06-27T03:55:56.384Z,1011.36
2023-06-27T03:56:56.352Z,1011.36
2023-06-27T03:57:56.331Z,1011.38
2023-06-27T03:58:56.321Z,1011.39
2023-06-27T03:59:56.306Z,1011.37
2023-06-27T04:00:56.326Z,1011.36
2023-06-27T04:01:56.286Z,1011.36
2023-06-27T04:02:56.319Z,1011.39
2023-06-27T04:03:56.372Z,1011.41
2023-06-27T04:04:56.465Z,1011.39
2023-06-27T04:05:56.254Z,1011.44
2023-06-27T04:06:56.261Z,1011.42
2023-06-27T04:07:56.247Z,1011.41
2023-06-27T04:08:56.213Z,1011.39
2023-06-27T04:09:56.199Z,1011.37
2023-06-27T04:10:56.194Z,1011.41
2023-06-27T04:11:56.216Z,1011.37
2023-06-27T04:12:56.181Z,1011.39
2023-06-27T04:13:56.170Z,1011.39
2023-06-27T04:14:56.148Z,1011.40
2023-06-27T04:15:56.133Z,1011.39
2023-06-27T04:16:56.150Z,1011.38
2023-06-27T04:17:56.137Z,1011.40
2023-06-27T04:18:56.132Z,1011.39
2023-06-27T04:19:56.095Z,1011.36
2023-06-27T04:20:56.081Z,1011.39
2023-06-27T04:21:56.076Z,1011.38
2023-06-27T04:22:56.080Z,1011.36
2023-06-27T04:23:56.068Z,1011.34
2023-06-27T04:24:56.046Z,1011.32
2023-06-27T04:25:56.041Z,1011.33
2023-06-27T04:26:56.015Z,1011.36
2023-06-27T04:27:56.001Z,1011.36
2023-06-27T04:28:56.026Z,1011.35
2023-06-27T04:29:55.984Z,1011.34
2023-06-27T04:30:56.012Z,1011.33
2023-06-27T04:31:56.000Z,1011.36
2023-06-27T04:32:55.998Z,1011.31
2023-06-27T04:33:55.958Z,1011.31
2023-06-27T04:34:55.928Z,1011.33
2023-06-27T04:35:55.919Z,1011.29
2023-06-27T04:36:55.897Z,1011.30
2023-06-27T04:37:55.892Z,1011.29
2023-06-27T04:38:55.896Z,1011.31
2023-06-27T04:39:55.869Z,1011.30
2023-06-27T04:40:55.854Z,1011.28
2023-06-27T04:41:55.851Z,1011.22
2023-06-27T04:42:55.826Z,1011.27
2023-06-27T04:43:55.846Z,1011.20
2023-06-27T04:44:55.807Z,1011.23
2023-06-27T04:45:55.802Z,1011.21
2023-06-27T04:46:55.788Z,1011.28
2023-06-27T04:47:55.835Z,1011.25
2023-06-27T04:48:55.782Z,1011.20
2023-06-27T04:49:55.757Z,1011.18
2023-06-27T04:50:55.736Z,1011.22
2023-06-27T04:51:55.730Z,1011.21
2023-06-27T04:52:55.725Z,1011.25
2023-06-27T04:53:55.736Z,1011.30
2023-06-27T04:54:55.702Z,1011.29
2023-06-27T04:55:55.701Z,1011.30
2023-06-27T04:57:08.441Z,1011.28
2023-06-27T04:57:55.666Z,1011.27
2023-06-27T04:58:55.675Z,1011.32
2023-06-27T04:59:55.640Z,1011.33
2023-06-27T05:00:55.658Z,1011.34
2023-06-27T05:01:55.620Z,1011.40
2023-06-27T05:02:55.615Z,1011.37
2023-06-27T05:03:55.621Z,1011.37
2023-06-27T05:04:55.585Z,1011.41
2023-06-27T05:05:55.573Z,1011.44
2023-06-27T05:06:55.596Z,1011.42
2023-06-27T05:07:55.560Z,1011.44
2023-06-27T05:08:55.557Z,1011.43
2023-06-27T05:09:55.528Z,1011.39
2023-06-27T05:10:55.507Z,1011.34
2023-06-27T05:11:55.502Z,1011.34
2023-06-27T05:12:55.489Z,1011.31
2023-06-27T05:13:55.518Z,1011.35
2023-06-27T05:14:55.470Z,1011.36
2023-06-27T05:15:55.460Z,1011.35
2023-06-27T05:16:55.435Z,1011.36
2023-06-27T05:17:55.435Z,1011.39
2023-06-27T05:18:55.440Z,1011.38
2023-06-27T05:19:55.411Z,1011.37
2023-06-27T05:20:55.409Z,1011.40
2023-06-27T05:21:55.392Z,1011.35
2023-06-27T05:22:55.380Z,1011.33
2023-06-27T05:23:55.385Z,1011.34
2023-06-27T05:24:55.355Z,1011.32
2023-06-27T05:25:55.339Z,1011.26
2023-06-27T05:26:55.331Z,1011.27
2023-06-27T05:27:55.320Z,1011.28
2023-06-27T05:28:55.324Z,1011.26
2023-06-27T05:29:55.297Z,1011.29
2023-06-27T05:30:55.363Z,1011.26
2023-06-27T05:31:55.280Z,1011.25
2023-06-27T05:32:55.315Z,1011.26
2023-06-27T05:33:55.277Z,1011.26
2023-06-27T05:34:55.232Z,1011.27
2023-06-27T05:35:55.228Z,1011.29
2023-06-27T05:36:55.213Z,1011.30
2023-06-27T05:37:55.207Z,1011.30
2023-06-27T05:38:55.220Z,1011.26
2023-06-27T05:39:55.195Z,1011.27
2023-06-27T05:40:55.176Z,1011.28
2023-06-27T05:41:55.174Z,1011.28
2023-06-27T05:42:55.150Z,1011.27
2023-06-27T05:43:55.169Z,1011.27
2023-06-27T05:44:55.128Z,1011.26
2023-06-27T05:45:55.117Z,1011.27
2023-06-27T05:46:55.114Z,1011.30
2023-06-27T05:47:55.118Z,1011.32
2023-06-27T05:48:55.102Z,1011.28
2023-06-27T05:49:55.075Z,1011.28
2023-06-27T05:50:55.069Z,1011.32
2023-06-27T05:51:55.049Z,1011.29
2023-06-27T05:52:55.042Z,1011.27
2023-06-27T05:53:55.027Z,1011.31
2023-06-27T05:54:55.034Z,1011.32
2023-06-27T05:55:55.020Z,1011.29
2023-06-27T05:56:54.989Z,1011.30
2023-06-27T05:57:54.985Z,1011.30
2023-06-27T05:58:54.963Z,1011.29
2023-06-27T05:59:54.983Z,1011.30
2023-06-27T06:00:54.943Z,1011.31
2023-06-27T06:01:54.953Z,1011.32
2023-06-27T06:02:54.985Z,1011.28
2023-06-27T06:03:54.967Z,1011.42
2023-06-27T06:04:54.920Z,1011.35
2023-06-27T06:05:54.886Z,1011.38
2023-06-27T06:06:54.890Z,1011.34
2023-06-27T06:07:54.872Z,1011.38
2023-06-27T06:08:54.847Z,1011.32
2023-06-27T06:09:54.864Z,1011.33
2023-06-27T06:10:54.828Z,1011.37
2023-06-27T06:11:54.816Z,1011.35
2023-06-27T06:12:54.815Z,1011.36
2023-06-27T06:13:54.801Z,1011.32
2023-06-27T06:14:54.797Z,1011.33
2023-06-27T06:15:54.778Z,1011.36
2023-06-27T06:16:54.757Z,1011.34
2023-06-27T06:17:54.835Z,1011.35
2023-06-27T06:18:54.738Z,1011.34
2023-06-27T06:19:54.755Z,1011.30
2023-06-27T06:20:54.712Z,1011.29
2023-06-27T06:21:54.703Z,1011.30
2023-06-27T06:22:54.684Z,1011.33
2023-06-27T06:23:54.688Z,1011.28
2023-06-27T06:24:54.721Z,1011.28
2023-06-27T06:25:54.663Z,1011.27
2023-06-27T06:26:54.644Z,1011.29
2023-06-27T06:27:54.644Z,1011.27
2023-06-27T06:28:54.622Z,1011.28
2023-06-27T06:29:54.640Z,1011.26
2023-06-27T06:30:54.595Z,1011.25
2023-06-27T06:31:54.670Z,1011.25
2023-06-27T06:32:54.673Z,1011.24
2023-06-27T06:33:54.577Z,1011.23
2023-06-27T06:34:54.573Z,1011.21
2023-06-27T06:35:54.543Z,1011.26
2023-06-27T06:36:54.540Z,1011.30
2023-06-27T06:37:54.573Z,1011.25
2023-06-27T06:38:54.509Z,1011.23
2023-06-27T06:39:54.522Z,1011.27
2023-06-27T06:40:54.485Z,1011.24
2023-06-27T06:41:54.507Z,1011.22
2023-06-27T06:42:54.459Z,1011.23
2023-06-27T06:43:54.460Z,1011.25
2023-06-27T06:44:54.462Z,1011.24
2023-06-27T06:45:54.468Z,1011.22
2023-06-27T06:46:54.446Z,1011.27
2023-06-27T06:47:54.434Z,1011.29
2023-06-27T06:48:54.397Z,1011.26
2023-06-27T06:49:54.422Z,1011.27
2023-06-27T06:50:54.411Z,1011.28
2023-06-27T06:51:54.385Z,1011.29
2023-06-27T06:52:54.351Z,1011.29
2023-06-27T06:53:54.345Z,1011.29
2023-06-27T06:54:54.354Z,1011.31
2023-06-27T06:55:54.325Z,1011.27
2023-06-27T06:56:54.310Z,1011.28
2023-06-27T06:57:54.312Z,1011.27
2023-06-27T06:58:54.326Z,1011.26
2023-06-27T06:59:54.343Z,1011.26
2023-06-27T07:00:54.283Z,1011.30
2023-06-27T07:01:54.267Z,1011.30
2023-06-27T07:02:54.264Z,1011.31
2023-06-27T07:03:54.236Z,1011.30
2023-06-27T07:04:54.274Z,1011.28
2023-06-27T07:05:54.228Z,1011.29
2023-06-27T07:06:54.219Z,1011.30
2023-06-27T07:07:54.192Z,1011.29
2023-06-27T07:08:54.177Z,1011.33
2023-06-27T07:09:54.201Z,1011.29
2023-06-27T07:10:54.161Z,1011.26
2023-06-27T07:11:54.148Z,1011.29
2023-06-27T07:12:54.138Z,1011.30
2023-06-27T07:13:54.136Z,1011.28
2023-06-27T07:14:54.134Z,1011.26
2023-06-27T07:15:54.110Z,1011.26
2023-06-27T07:16:54.088Z,1011.26
2023-06-27T07:17:54.086Z,1011.26
2023-06-27T07:18:54.081Z,1011.31
2023-06-27T07:19:54.079Z,1011.26
2023-06-27T07:20:54.047Z,1011.27
2023-06-27T07:21:54.046Z,1011.30
2023-06-27T07:22:54.023Z,1011.32
2023-06-27T07:23:54.027Z,1011.33
2023-06-27T07:24:54.015Z,1011.31
2023-06-27T07:25:53.990Z,1011.30
2023-06-27T07:26:53.968Z,1011.31
2023-06-27T07:27:53.987Z,1011.37
2023-06-27T07:28:53.956Z,1011.30
2023-06-27T07:29:53.974Z,1011.36
2023-06-27T07:30:53.974Z,1011.37
2023-06-27T07:31:53.920Z,1011.39
2023-06-27T07:32:53.926Z,1011.34
2023-06-27T07:33:53.897Z,1011.35
2023-06-27T07:34:53.901Z,1011.35
2023-06-27T07:35:53.882Z,1011.33
2023-06-27T07:36:53.858Z,1011.35
2023-06-27T07:37:53.850Z,1011.37
2023-06-27T07:38:53.838Z,1011.34
2023-06-27T07:39:53.860Z,1011.38
2023-06-27T07:40:55.688Z,1011.39
2023-06-27T07:41:53.803Z,1011.33
2023-06-27T07:42:53.796Z,1011.34
2023-06-27T07:43:53.784Z,1011.37
2023-06-27T07:44:53.786Z,1011.36
2023-06-27T07:45:53.805Z,1011.35
2023-06-27T07:46:53.753Z,1011.40
2023-06-27T07:47:53.811Z,1011.37
2023-06-27T07:48:53.839Z,1011.37
2023-06-27T07:49:53.741Z,1011.42
2023-06-27T07:50:53.729Z,1011.43
2023-06-27T07:51:53.702Z,1011.41
2023-06-27T07:52:53.741Z,1011.42
2023-06-27T07:53:53.673Z,1011.43
2023-06-27T07:54:53.703Z,1011.40
2023-06-27T07:55:53.652Z,1011.47
2023-06-27T07:56:53.655Z,1011.41
2023-06-27T07:57:53.629Z,1011.40
2023-06-27T07:58:53.623Z,1011.41
2023-06-27T07:59:53.666Z,1011.42
2023-06-27T08:00:53.599Z,1011.36
2023-06-27T08:01:53.694Z,1011.35
2023-06-27T08:02:53.706Z,1011.35
2023-06-27T08:03:53.930Z,1011.40
2023-06-27T08:04:53.609Z,1011.39
2023-06-27T08:05:53.557Z,1011.36
2023-06-27T08:06:53.525Z,1011.38
2023-06-27T08:07:53.520Z,1011.35
2023-06-27T08:08:53.503Z,1011.34
2023-06-27T08:09:53.510Z,1011.36
2023-06-27T08:10:53.497Z,1011.39
2023-06-27T08:11:53.481Z,1011.35
2023-06-27T08:12:53.452Z,1011.40
2023-06-27T08:13:53.458Z,1011.42
2023-06-27T08:14:53.433Z,1011.40
2023-06-27T08:15:53.444Z,1011.41
2023-06-27T08:16:53.410Z,1011.39
2023-06-27T08:17:53.521Z,1011.39
2023-06-27T08:18:53.400Z,1011.40
2023-06-27T08:19:53.380Z,1011.44
2023-06-27T08:20:53.385Z,1011.46
2023-06-27T08:21:53.427Z,1011.44
2023-06-27T08:22:53.346Z,1011.44
2023-06-27T08:23:53.347Z,1011.47
2023-06-27T08:24:53.338Z,1011.47
2023-06-27T08:25:53.331Z,1011.41
2023-06-27T08:26:53.304Z,1011.43
2023-06-27T08:27:53.298Z,1011.45
2023-06-27T08:28:53.288Z,1011.44
2023-06-27T08:29:53.289Z,1011.45
2023-06-27T08:30:53.343Z,1011.47
2023-06-27T08:31:53.259Z,1011.41
2023-06-27T08:32:53.245Z,1011.41
2023-06-27T08:33:53.229Z,1011.44
2023-06-27T08:34:53.210Z,1011.39
2023-06-27T08:35:53.245Z,1011.36
2023-06-27T08:36:53.198Z,1011.37
2023-06-27T08:37:53.180Z,1011.31
2023-06-27T08:38:53.183Z,1011.40
2023-06-27T08:39:53.204Z,1011.42
2023-06-27T08:40:53.176Z,1011.37
2023-06-27T08:41:53.128Z,1011.39
2023-06-27T08:42:53.123Z,1011.39
2023-06-27T08:43:54.889Z,1011.33
2023-06-27T08:44:53.104Z,1011.34
2023-06-27T08:45:53.110Z,1011.35
2023-06-27T08:46:53.075Z,1011.33
2023-06-27T08:47:53.093Z,1011.35
2023-06-27T08:48:53.058Z,1011.29
2023-06-27T08:49:53.037Z,1011.32
2023-06-27T08:50:53.060Z,1011.34
2023-06-27T08:51:53.046Z,1011.29
2023-06-27T08:52:53.007Z,1011.27
2023-06-27T08:53:53.000Z,1011.33
2023-06-27T08:54:52.987Z,1011.36
2023-06-27T08:55:52.996Z,1011.32
2023-06-27T08:56:53.040Z,1011.36
2023-06-27T08:57:53.018Z,1011.34
2023-06-27T08:58:53.025Z,1011.38
2023-06-27T08:59:52.938Z,1011.36
2023-06-27T09:00:53.061Z,1011.34
2023-06-27T09:01:52.980Z,1011.32
2023-06-27T09:02:52.981Z,1011.33
2023-06-27T09:03:53.005Z,1011.32
2023-06-27T09:04:52.900Z,1011.32
2023-06-27T09:05:52.888Z,1011.26
2023-06-27T09:06:52.894Z,1011.31
2023-06-27T09:07:52.847Z,1011.32
2023-06-27T09:08:52.844Z,1011.32
2023-06-27T09:09:52.847Z,1011.27
2023-06-27T09:10:52.844Z,1011.30
2023-06-27T09:11:52.814Z,1011.28
2023-06-27T09:12:52.801Z,1011.25
2023-06-27T09:13:52.789Z,1011.22
2023-06-27T09:14:52.780Z,1011.23
2023-06-27T09:15:52.853Z,1011.25
2023-06-27T09:16:52.819Z,1011.30
2023-06-27T09:17:52.766Z,1011.35
2023-06-27T09:18:55.546Z,1011.31
2023-06-27T09:19:52.720Z,1011.28
2023-06-27T09:20:52.735Z,1011.25
2023-06-27T09:21:54.567Z,1011.27
2023-06-27T09:22:52.693Z,1011.24
2023-06-27T09:23:52.704Z,1011.18
2023-06-27T09:24:52.673Z,1011.18
2023-06-27T09:25:52.674Z,1011.18
2023-06-27T09:26:52.652Z,1011.17
2023-06-27T09:27:54.955Z,1011.22
2023-06-27T09:28:52.629Z,1011.25
2023-06-27T09:29:52.618Z,1011.25
2023-06-27T09:30:52.632Z,1011.25
2023-06-27T09:31:52.641Z,1011.23
2023-06-27T09:32:52.702Z,1011.20
2023-06-27T09:34:01.805Z,1011.26
2023-06-27T09:34:52.568Z,1011.22
2023-06-27T09:36:01.949Z,1011.22
2023-06-27T09:38:52.521Z,1011.22
2023-06-27T09:39:52.509Z,1011.16
2023-06-27T09:40:52.526Z,1011.11
2023-06-27T09:41:52.500Z,1011.14
2023-06-27T09:42:55.601Z,1011.15
2023-06-27T09:43:52.473Z,1011.17
2023-06-27T09:44:52.457Z,1011.16
2023-06-27T09:45:52.468Z,1011.18
2023-06-27T09:46:52.441Z,1011.14
2023-06-27T09:47:52.445Z,1011.19
2023-06-27T09:48:52.421Z,1011.14
2023-06-27T09:49:52.404Z,1011.19
2023-06-27T09:50:52.422Z,1011.23
2023-06-27T09:51:52.391Z,1011.20
2023-06-27T09:52:54.023Z,1011.22
2023-06-27T09:53:52.363Z,1011.20
2023-06-27T09:54:52.357Z,1011.18
2023-06-27T09:55:52.364Z,1011.21
2023-06-27T09:56:52.353Z,1011.21
2023-06-27T09:57:52.322Z,1011.21
2023-06-27T09:58:52.310Z,1011.23
2023-06-27T09:59:52.298Z,1011.22
2023-06-27T10:00:52.309Z,1011.21
2023-06-27T10:01:52.505Z,1011.18
2023-06-27T10:02:52.422Z,1011.17
2023-06-27T10:03:52.306Z,1011.12
2023-06-27T10:04:52.364Z,1011.14
2023-06-27T10:06:03.599Z,1011.15
2023-06-27T10:06:52.317Z,1011.14
2023-06-27T10:07:52.217Z,1011.20
2023-06-27T10:08:52.217Z,1011.17
2023-06-27T10:09:52.189Z,1011.16
2023-06-27T10:10:52.207Z,1011.11
2023-06-27T10:11:52.173Z,1011.15
2023-06-27T10:12:52.170Z,1011.20
2023-06-27T10:13:52.143Z,1011.18
2023-06-27T10:14:52.139Z,1011.17
2023-06-27T10:15:52.163Z,1011.16
2023-06-27T10:16:52.116Z,1011.17
2023-06-27T10:17:52.120Z,1011.16
2023-06-27T10:18:52.102Z,1011.20
2023-06-27T10:19:52.084Z,1011.08
2023-06-27T10:20:52.115Z,1011.06
2023-06-27T10:21:52.071Z,1011.05
2023-06-27T10:22:52.059Z,1011.07
2023-06-27T10:23:52.043Z,1011.04
2023-06-27T10:24:52.030Z,1011.06
2023-06-27T10:25:52.036Z,1011.03
2023-06-27T10:26:52.010Z,1011.05
2023-06-27T10:27:51.995Z,1011.05
2023-06-27T10:28:51.998Z,1011.02
2023-06-27T10:29:51.973Z,1011.05
2023-06-27T10:30:52.089Z,1011.02
2023-06-27T10:31:51.988Z,1011.04
2023-06-27T10:32:51.964Z,1010.99
2023-06-27T10:33:51.944Z,1011.05
2023-06-27T10:34:51.937Z,1011.04
2023-06-27T10:35:51.925Z,1011.06
2023-06-27T10:36:51.901Z,1011.06
2023-06-27T10:37:51.888Z,1011.00
2023-06-27T10:38:51.883Z,1011.00
2023-06-27T10:39:51.859Z,1011.02
2023-06-27T10:40:51.885Z,1011.00
2023-06-27T10:41:51.858Z,1010.97
2023-06-27T10:42:51.841Z,1010.99
2023-06-27T10:43:51.826Z,1010.96
2023-06-27T10:44:51.821Z,1010.98
2023-06-27T10:45:51.818Z,1010.98
2023-06-27T10:46:51.790Z,1011.00
2023-06-27T10:47:51.839Z,1010.94
2023-06-27T10:48:51.770Z,1010.96
2023-06-27T10:49:51.775Z,1010.96
2023-06-27T10:50:51.764Z,1010.98
2023-06-27T10:51:51.742Z,1010.98
2023-06-27T10:52:51.720Z,1010.97
2023-06-27T10:53:51.702Z,1010.92
2023-06-27T10:54:51.691Z,1010.92
2023-06-27T10:55:51.701Z,1010.96
2023-06-27T10:56:51.672Z,1010.92
2023-06-27T10:57:51.675Z,1010.92
2023-06-27T10:58:51.658Z,1010.90
2023-06-27T10:59:51.641Z,1010.89
2023-06-27T11:00:51.653Z,1010.80
2023-06-27T11:01:51.653Z,1010.82
2023-06-27T11:02:51.766Z,1010.81
2023-06-27T11:03:51.774Z,1010.81
2023-06-27T11:04:51.642Z,1010.83
2023-06-27T11:05:51.641Z,1010.81
2023-06-27T11:06:51.592Z,1010.86
2023-06-27T11:07:51.554Z,1010.78
2023-06-27T11:08:51.545Z,1010.77
2023-06-27T11:09:51.529Z,1010.77
2023-06-27T11:10:51.576Z,1010.77
2023-06-27T11:11:51.508Z,1010.78
2023-06-27T11:12:51.528Z,1010.70
2023-06-27T11:13:51.491Z,1010.67
2023-06-27T11:14:51.487Z,1010.65
2023-06-27T11:15:51.528Z,1010.70
2023-06-27T11:16:51.526Z,1010.73
2023-06-27T11:17:51.484Z,1010.73
2023-06-27T11:18:51.441Z,1010.71
2023-06-27T11:19:51.449Z,1010.73
2023-06-27T11:20:51.444Z,1010.76
2023-06-27T11:21:51.405Z,1010.75
2023-06-27T11:22:51.395Z,1010.74
2023-06-27T11:23:51.387Z,1010.76
2023-06-27T11:24:51.392Z,1010.83
2023-06-27T11:25:51.386Z,1010.88
2023-06-27T11:26:51.355Z,1010.80
2023-06-27T11:27:51.331Z,1010.82
2023-06-27T11:28:51.335Z,1010.83
2023-06-27T11:29:51.316Z,1010.81
2023-06-27T11:30:51.322Z,1010.84
2023-06-27T11:31:51.315Z,1010.82
2023-06-27T11:32:51.302Z,1010.80
2023-06-27T11:33:51.275Z,1010.76
2023-06-27T11:34:51.269Z,1010.75
2023-06-27T11:35:51.270Z,1010.76
2023-06-27T11:36:51.245Z,1010.75
2023-06-27T11:37:51.228Z,1010.76
2023-06-27T11:38:51.220Z,1010.72
2023-06-27T11:39:51.200Z,1010.74
2023-06-27T11:40:51.220Z,1010.74
2023-06-27T11:41:51.172Z,1010.76
2023-06-27T11:42:51.175Z,1010.71
2023-06-27T11:43:51.174Z,1010.70
2023-06-27T11:44:51.145Z,1010.72
2023-06-27T11:45:51.201Z,1010.72
2023-06-27T11:46:51.143Z,1010.73
2023-06-27T11:47:51.119Z,1010.72
2023-06-27T11:48:51.099Z,1010.71
2023-06-27T11:49:51.097Z,1010.72
2023-06-27T11:50:51.098Z,1010.69
2023-06-27T11:51:51.062Z,1010.69
2023-06-27T11:52:51.051Z,1010.71
2023-06-27T11:53:51.043Z,1010.73
2023-06-27T11:54:51.037Z,1010.72
2023-06-27T11:55:56.774Z,1010.75
2023-06-27T11:56:51.007Z,1010.78
2023-06-27T11:57:50.997Z,1010.83
2023-06-27T11:58:50.984Z,1010.86
2023-06-27T11:59:50.978Z,1010.89
2023-06-27T12:00:51.032Z,1010.83
2023-06-27T12:01:50.983Z,1010.85
2023-06-27T12:02:50.964Z,1010.84
2023-06-27T12:03:51.001Z,1010.90
2023-06-27T12:04:50.928Z,1010.83
2023-06-27T12:05:50.925Z,1010.85
2023-06-27T12:06:50.930Z,1010.86
2023-06-27T12:07:50.887Z,1010.86